Flight Track Log - Related Links

Times and Time Zones

All times are in EDT time to prevent confusion due to time zone crossing. See the DAL3682 flight status page for this flight to view local times or setup timezone preferences in your user account.

Time Position Orientation Groundspeed Altitude Reporting Facility
EDT Latitude Longitude Course Direction KTS MPH feet Rate Location/Type
Fri 11:49:01 AM 39.0500 -84.6833 293° West 172 198 1,400  Level Cincinnati TRACON
Fri 11:49:49 AM 39.0500 -84.7500 270° West 188 216 2,500 1,789 Climbing Cincinnati TRACON
Fri 11:50:55 AM 39.0500 -84.8500 270° West 293 337 4,800 2,324 Climbing Cincinnati TRACON
Fri 11:52:00 AM 39.0294 -84.9607 311° West  Level FlightAware Approximate
Fri 11:52:11 AM 39.0519 -84.9689 271° West 287 330 8,000  Level Indianapolis Center
Fri 11:53:00 AM 39.0925 -85.0813 297° West  Level FlightAware Approximate
Fri 11:53:13 AM 39.0853 -85.0686 293° West 304 350 10,600  Level Indianapolis Center
Fri 11:54:00 AM 39.1384 -85.2152 293° West  Level FlightAware Approximate
Fri 11:54:15 AM 39.1244 -85.1697 297° West 315 362 12,200  Level Indianapolis Center
Fri 11:55:17 AM 39.1756 -85.3083 295° West 355 409 14,000 1,597 Climbing Indianapolis Center
Fri 11:56:19 AM 39.2242 -85.4272 298° West 373 429 15,500 1,452 Climbing Indianapolis Center
Fri 11:57:21 AM 39.2914 -85.5314 310° West 377 434 17,000 1,161 Climbing Indianapolis Center
Fri 11:58:23 AM 39.3608 -85.6392 310° West 390 449 17,900 919 Climbing Indianapolis Center
Fri 11:59:25 AM 39.4308 -85.7525 309° West 402 463 18,900 1,113 Climbing Indianapolis Center
Fri 12:00:27 PM 39.5031 -85.8667 309° West 410 472 20,200 1,452 Climbing Indianapolis Center
Fri 12:01:29 PM 39.5883 -86.0025 309° West 407 468 21,900 1,306 Climbing Indianapolis Center
Fri 12:02:31 PM 39.6589 -86.1164 309° West 406 467 22,900 1,065 Climbing Indianapolis Center
Fri 12:03:33 PM 39.7394 -86.2353 311° West 407 468 24,100 1,161 Climbing Indianapolis Center
Fri 12:04:35 PM 39.8308 -86.3278 322° Northwest 406 467 25,300 968 Climbing Indianapolis Center
Fri 12:05:37 PM 39.9181 -86.4164 322° Northwest 403 464 26,100 629 Climbing Indianapolis Center
Fri 12:06:39 PM 40.0081 -86.5069 322° Northwest 407 468 26,600 484 Climbing Indianapolis Center
Fri 12:07:41 PM 40.1131 -86.5719 335° Northwest 419 482 27,100 505 Climbing Indianapolis Center
Fri 12:08:14 PM 40.1792 -86.6083 337° Northwest 424 488 27,400 511 Climbing Chicago Center
Fri 12:09:15 PM 40.2886 -86.6686 337° Northwest 428 493 27,900 488 Climbing Chicago Center
Fri 12:10:17 PM 40.4000 -86.7294 337° Northwest 432 497 28,400 484 Climbing Chicago Center
Fri 12:11:19 PM 40.5114 -86.7911 337° Northwest 436 502 28,900 484 Climbing Chicago Center
Fri 12:12:21 PM 40.6236 -86.8517 338° Northwest 436 502 29,400 488 Climbing Chicago Center
Fri 12:13:22 PM 40.7469 -86.9183 338° Northwest 437 503 29,900 293 Climbing Chicago Center
Fri 12:14:24 PM 40.8597 -86.9819 337° Northwest 441 507 30,000 48 Climbing Chicago Center
Fri 12:15:26 PM 40.9997 -87.0608 337° Northwest 457 526 30,000  Level Chicago Center
Fri 12:16:27 PM 41.1192 -87.1272 337° Northwest 467 537 30,000  Level Chicago Center
Fri 12:17:29 PM 41.2383 -87.1939 337° Northwest 467 537 30,000  Level Chicago Center
Fri 12:18:31 PM 41.3561 -87.2608 337° Northwest 466 536 30,000  Level Chicago Center
Fri 12:19:32 PM 41.4764 -87.3289 337° Northwest 472 543 30,000  Level Chicago Center
Fri 12:20:34 PM 41.5958 -87.3967 337° Northwest 472 543 30,000  Level Chicago Center
Fri 12:21:36 PM 41.7378 -87.4786 337° Northwest 469 540 30,000  Level Chicago Center
Fri 12:22:37 PM 41.8569 -87.5458 337° Northwest 470 541 30,000  Level Chicago Center
Fri 12:23:39 PM 41.9764 -87.6139 337° Northwest 471 542 30,000  Level Chicago Center
Fri 12:24:41 PM 42.0958 -87.6839 337° Northwest 472 543 30,000  Level Chicago Center
Fri 12:25:43 PM 42.2156 -87.7528 337° Northwest 472 543 30,000  Level Chicago Center
Fri 12:26:44 PM 42.3508 -87.8319 337° Northwest 473 544 30,000  Level Chicago Center
Fri 12:27:46 PM 42.4711 -87.9025 337° Northwest 471 542 30,000  Level Chicago Center
Fri 12:28:48 PM 42.5783 -88.0008 326° Northwest 471 542 30,000  Level Chicago Center
Fri 12:29:50 PM 42.6736 -88.1242 316° Northwest 470 541 30,000  Level Chicago Center
Fri 12:30:51 PM 42.7856 -88.2642 317° Northwest 467 537 30,000  Level Chicago Center
Fri 12:31:53 PM 42.8806 -88.3864 317° Northwest 467 537 30,000  Level Chicago Center
Fri 12:32:55 PM 42.9764 -88.5086 317° Northwest 468 539 30,000  Level Chicago Center
Fri 12:33:57 PM 43.0725 -88.6331 317° Northwest 471 542 30,000  Level Chicago Center
Fri 12:34:58 PM 43.1689 -88.7572 317° Northwest 471 542 30,000  Level Chicago Center
Fri 12:36:00 PM 43.2653 -88.8833 316° Northwest 473 544 30,000  Level Chicago Center
Fri 12:37:02 PM 43.3628 -89.0092 317° Northwest 476 548 30,000  Level Chicago Center
Fri 12:38:04 PM 43.4589 -89.1347 317° Northwest 473 544 30,000  Level Chicago Center
Fri 12:39:06 PM 43.5714 -89.2822 316° Northwest 476 548 30,000  Level Chicago Center
Fri 12:40:08 PM 43.6664 -89.4083 316° Northwest 473 544 30,000  Level Chicago Center
Fri 12:40:41 PM 43.7131 -89.4714 316° Northwest 471 542 30,000  Level Minneapolis Center
Fri 12:41:43 PM 43.8050 -89.5975 315° West 468 539 30,000  Level Minneapolis Center
Fri 12:42:44 PM 43.8997 -89.7231 316° Northwest 469 540 30,000  Level Minneapolis Center
Fri 12:43:46 PM 43.9933 -89.8508 316° Northwest 470 541 30,000  Level Minneapolis Center
Fri 12:44:48 PM 44.0992 -90.0025 314° West 468 539 30,000  Level Minneapolis Center
Fri 12:45:49 PM 44.1633 -90.1572 300° West 463 533 30,000  Level Minneapolis Center
Fri 12:46:51 PM 44.2308 -90.3100 302° West 463 533 30,000  Level Minneapolis Center
Fri 12:47:53 PM 44.2969 -90.4650 301° West 464 534 30,000  Level Minneapolis Center
Fri 12:48:55 PM 44.3644 -90.6178 302° West 463 533 30,000  Level Minneapolis Center
Fri 12:49:56 PM 44.4306 -90.7728 301° West 464 534 30,000  Level Minneapolis Center
Fri 12:50:58 PM 44.5000 -90.9433 300° West 464 534 30,000 -48 Level Minneapolis Center
Fri 12:52:00 PM 44.5658 -91.0994 301° West 466 536 29,900 -1,317 Descending Minneapolis Center
Fri 12:53:01 PM 44.6303 -91.2547 300° West 465 535 27,300 -2,488 Descending Minneapolis Center
Fri 12:54:03 PM 44.6917 -91.4050 300° West 454 522 24,800 -2,565 Descending Minneapolis Center
Fri 12:55:05 PM 44.7639 -91.5794 300° West 437 503 22,000 -2,468 Descending Minneapolis Center
Fri 12:56:07 PM 44.8208 -91.7194 300° West 425 489 19,700 -2,000 Descending Minneapolis Center
Fri 12:57:08 PM 44.8750 -91.8528 300° West 402 463 17,900 -1,902 Descending Minneapolis Center
Fri 12:58:10 PM 44.9267 -91.9842 299° West 389 448 15,800 -2,032 Descending Minneapolis Center
Fri 12:59:12 PM 44.9794 -92.1144 300° West 386 444 13,700 -2,000 Descending Minneapolis Center
Fri 01:00:13 PM 45.0308 -92.2419 300° West 378 435 11,700 -1,366 Descending Minneapolis Center
Fri 01:01:15 PM 45.0344 -92.3783 272° West 359 413 10,900 -1,113 Descending Minneapolis Center
Fri 01:02:17 PM 45.0042 -92.5164 253° West 303 349 9,400 -1,171 Descending Minneapolis Center
Fri 01:03:18 PM 44.9542 -92.5950 228° Southwest 270 311 8,500 -780 Descending Minneapolis Center
Fri 01:04:20 PM 44.9108 -92.6672 230° Southwest 246 283 7,800 -726 Descending Minneapolis Center
Fri 01:05:22 PM 44.8603 -92.7100 211° Southwest 229 264 7,000 -780 Descending Minneapolis Center
Fri 01:06:23 PM 44.8067 -92.6828 160° South 207 238 6,200 -927 Descending Minneapolis Center
Fri 01:07:25 PM 44.7561 -92.6433 151° Southeast 208 239 5,100 -581 Descending Minneapolis Center
Fri 01:08:27 PM 44.7022 -92.6508 186° South 212 244 5,000 -49 Descending Minneapolis Center
Fri 01:09:28 PM 44.6758 -92.7206 242° Southwest 203 234 5,000 -293 Level Minneapolis Center
Fri 01:10:30 PM 44.6994 -92.7828 298° West 184 212 4,400 -484 Descending Minneapolis Center
Fri 01:11:32 PM 44.7275 -92.8428 303° West 184 212 4,000 -194 Descending Minneapolis Center
Fri 01:12:34 PM 44.7539 -92.9022 302° West 181 208 4,000  Level Minneapolis Center
Fri 01:13:35 PM 44.7808 -92.9642 302° West 185 213 4,000 -49 Level Minneapolis Center
Fri 01:14:37 PM 44.8078 -93.0253 302° West 185 213 3,900 -97 Descending Minneapolis Center

Login

Don't have an account? Register now (free) for customized features, flight alerts, and more!